Time;durP1;ratioP1;P1;durP2;ratioP2;P2;SDS_P1;SDS_P2;PMS_P1;PMS_P2;Temp;Humidity;BMP_temperature;BMP_pressure;BME280_temperature;BME280_humidity;BME280_pressure;Samples;Min_cycle;Max_cycle;Signal;HPM_P1;HPM_P2
2022/10/10 00:00:40;;;;;;;4.43;3.97;;;;;;;;;;5051424;28;20279;-87
2022/10/10 00:03:07;;;;;;;4.47;4.07;;;;;;;;;;5051342;28;20252;-88
2022/10/10 00:05:35;;;;;;;6.43;3.70;;;;;;;;;;5051765;28;20198;-88
2022/10/10 00:08:02;;;;;;;7.10;3.90;;;;;;;;;;5053952;28;20229;-87
2022/10/10 00:10:29;;;;;;;4.83;4.37;;;;;;;;;;5055194;28;20225;-88
2022/10/10 00:12:56;;;;;;;6.00;3.80;;;;;;;;;;5054944;28;20229;-88
2022/10/10 00:15:25;;;;;;;7.43;3.70;;;;;;;;;;5055379;28;20575;-87
2022/10/10 00:17:52;;;;;;;4.43;4.03;;;;;;;;;;5054720;28;20256;-87
2022/10/10 00:20:19;;;;;;;5.63;3.80;;;;;;;;;;5055438;28;20226;-88
2022/10/10 00:22:47;;;;;;;4.83;4.00;;;;;;;;;;5055214;28;20238;-88
2022/10/10 00:25:14;;;;;;;4.20;3.80;;;;;;;;;;5055287;28;20225;-88
2022/10/10 00:27:41;;;;;;;5.17;3.70;;;;;;;;;;5054379;28;20714;-87
2022/10/10 00:30:10;;;;;;;4.53;4.13;;;;;;;;;;5055074;28;20248;-88
2022/10/10 00:32:38;;;;;;;4.53;4.00;;;;;;;;;;5054236;28;20805;-87
2022/10/10 00:35:06;;;;;;;5.00;3.80;;;;;;;;;;5055328;28;20198;-88
2022/10/10 00:37:33;;;;;;;8.00;3.80;;;;;;;;;;5054591;28;20252;-88
2022/10/10 00:40:00;;;;;;;4.27;3.63;;;;;;;;;;5055063;28;20222;-88
2022/10/10 00:42:27;;;;;;;4.87;3.60;;;;;;;;;;5054684;28;20206;-87
2022/10/10 00:45:09;;;;;;;6.47;3.83;;;;;;;;;;5055013;28;20206;-87
2022/10/10 00:47:36;;;;;;;5.97;3.70;;;;;;;;;;5054202;28;20253;-87
2022/10/10 00:50:05;;;;;;;4.17;3.67;;;;;;;;;;5054671;28;20210;-87
2022/10/10 00:52:32;;;;;;;4.20;3.77;;;;;;;;;;5054135;28;20211;-87
2022/10/10 00:54:59;;;;;;;3.90;3.50;;;;;;;;;;5054981;28;20209;-88
2022/10/10 00:57:26;;;;;;;8.33;4.10;;;;;;;;;;5054255;28;20225;-87
2022/10/10 00:59:53;;;;;;;4.63;4.10;;;;;;;;;;5054174;28;20206;-87
2022/10/10 01:02:20;;;;;;;4.07;3.67;;;;;;;;;;5053492;28;20693;-87
2022/10/10 01:04:47;;;;;;;3.97;3.40;;;;;;;;;;5049515;28;20202;-88
2022/10/10 01:07:22;;;;;;;6.60;3.73;;;;;;;;;;5054207;28;20200;-87
2022/10/10 01:09:50;;;;;;;3.93;3.47;;;;;;;;;;5054441;28;20193;-87
2022/10/10 01:12:21;;;;;;;8.70;3.70;;;;;;;;;;5054194;28;20202;-88
2022/10/10 01:14:50;;;;;;;4.20;3.80;;;;;;;;;;5054267;28;20663;-88
2022/10/10 01:17:21;;;;;;;5.23;3.83;;;;;;;;;;5053907;28;20232;-87
2022/10/10 01:19:56;;;;;;;4.57;3.20;;;;;;;;;;5054291;28;20205;-87
2022/10/10 01:22:27;;;;;;;5.30;3.87;;;;;;;;;;5053779;28;20194;-87
2022/10/10 01:24:57;;;;;;;6.00;3.83;;;;;;;;;;5054250;28;20201;-88
2022/10/10 01:27:30;;;;;;;5.57;3.90;;;;;;;;;;5053852;28;20665;-87
2022/10/10 01:30:01;;;;;;;4.57;3.80;;;;;;;;;;5054267;28;20213;-88
2022/10/10 01:32:30;;;;;;;4.73;3.60;;;;;;;;;;5053258;28;20194;-88
2022/10/10 01:35:04;;;;;;;5.10;3.77;;;;;;;;;;5052135;28;20206;-87
2022/10/10 01:37:35;;;;;;;4.40;3.80;;;;;;;;;;5053850;28;20210;-88
2022/10/10 01:40:05;;;;;;;10.17;4.13;;;;;;;;;;5054121;28;20231;-87
2022/10/10 01:42:34;;;;;;;4.63;3.47;;;;;;;;;;5053795;28;20202;-87
2022/10/10 01:45:03;;;;;;;7.40;3.97;;;;;;;;;;5053731;28;20654;-87
2022/10/10 01:47:30;;;;;;;8.13;4.43;;;;;;;;;;5053233;28;20281;-87
2022/10/10 01:49:59;;;;;;;4.30;3.77;;;;;;;;;;5034146;28;20203;-87
2022/10/10 01:52:30;;;;;;;5.03;4.10;;;;;;;;;;5042224;28;20194;-87
2022/10/10 01:55:03;;;;;;;4.43;3.80;;;;;;;;;;5053983;28;20194;-87
2022/10/10 01:57:35;;;;;;;4.00;3.60;;;;;;;;;;5053215;28;20217;-87
2022/10/10 02:00:06;;;;;;;4.77;3.80;;;;;;;;;;5053748;28;20194;-87
2022/10/10 02:02:39;;;;;;;3.67;3.37;;;;;;;;;;5052925;28;20579;-87
2022/10/10 02:05:10;;;;;;;4.20;3.90;;;;;;;;;;5053591;28;20195;-87
2022/10/10 02:07:42;;;;;;;6.30;4.20;;;;;;;;;;5052825;28;20244;-87
2022/10/10 02:10:09;;;;;;;3.90;3.60;;;;;;;;;;5053795;28;20241;-87
2022/10/10 02:12:36;;;;;;;6.03;3.77;;;;;;;;;;5053289;28;20246;-87
2022/10/10 02:15:09;;;;;;;3.70;3.40;;;;;;;;;;5053336;28;20194;-88
2022/10/10 02:17:37;;;;;;;3.90;3.60;;;;;;;;;;5051772;28;20937;-87
2022/10/10 02:20:06;;;;;;;4.20;3.43;;;;;;;;;;5042868;28;20644;-87
2022/10/10 02:22:34;;;;;;;5.13;3.90;;;;;;;;;;5032990;28;20230;-87
2022/10/10 02:25:01;;;;;;;3.47;3.07;;;;;;;;;;5037429;28;20205;-88
2022/10/10 02:27:30;;;;;;;4.40;4.00;;;;;;;;;;5052834;28;20225;-87
2022/10/10 02:29:58;;;;;;;4.10;3.77;;;;;;;;;;5052496;28;20214;-87
2022/10/10 02:32:32;;;;;;;4.27;3.63;;;;;;;;;;5052751;28;20210;-87
2022/10/10 02:35:01;;;;;;;4.00;3.60;;;;;;;;;;5053156;28;20202;-87
2022/10/10 02:37:28;;;;;;;5.10;3.57;;;;;;;;;;5052598;28;20222;-87
2022/10/10 02:39:58;;;;;;;3.70;3.33;;;;;;;;;;5049701;28;20214;-87
2022/10/10 02:42:26;;;;;;;4.40;4.00;;;;;;;;;;5052934;28;20194;-87
2022/10/10 02:44:54;;;;;;;5.03;3.67;;;;;;;;;;5053299;28;20210;-88
2022/10/10 02:47:21;;;;;;;4.90;3.63;;;;;;;;;;5053433;28;20206;-88
2022/10/10 02:49:50;;;;;;;4.43;3.70;;;;;;;;;;5052378;28;20206;-87
2022/10/10 02:52:18;;;;;;;5.63;4.30;;;;;;;;;;5052566;28;20194;-87
2022/10/10 02:54:45;;;;;;;3.87;3.40;;;;;;;;;;5052176;28;20213;-87
2022/10/10 02:57:12;;;;;;;5.13;3.40;;;;;;;;;;5051941;28;20226;-87
2022/10/10 02:59:39;;;;;;;4.80;3.67;;;;;;;;;;5052582;28;20225;-87
2022/10/10 03:02:06;;;;;;;4.70;3.97;;;;;;;;;;5052795;28;20226;-87
2022/10/10 03:04:34;;;;;;;6.47;4.00;;;;;;;;;;5051944;28;20251;-87
2022/10/10 03:07:03;;;;;;;4.33;3.87;;;;;;;;;;5052439;28;20536;-88
2022/10/10 03:09:30;;;;;;;7.17;4.03;;;;;;;;;;5051806;28;20233;-88
2022/10/10 03:11:57;;;;;;;4.60;4.17;;;;;;;;;;5052979;28;20230;-88
2022/10/10 03:14:25;;;;;;;8.93;4.17;;;;;;;;;;5052393;28;20238;-87
2022/10/10 03:16:52;;;;;;;5.07;4.10;;;;;;;;;;5052333;28;20604;-87
2022/10/10 03:19:19;;;;;;;4.00;3.70;;;;;;;;;;5051681;28;20233;-87
2022/10/10 03:21:46;;;;;;;8.07;3.43;;;;;;;;;;5052508;28;20232;-87
2022/10/10 03:24:14;;;;;;;5.93;3.97;;;;;;;;;;5052405;28;20305;-87
2022/10/10 03:26:41;;;;;;;7.23;4.10;;;;;;;;;;5052582;28;20206;-87
2022/10/10 03:29:08;;;;;;;6.67;4.27;;;;;;;;;;5050860;28;20905;-87
2022/10/10 03:31:36;;;;;;;4.17;3.70;;;;;;;;;;5037699;28;20235;-87
2022/10/10 03:34:12;;;;;;;6.47;3.80;;;;;;;;;;5048957;28;20234;-87
2022/10/10 03:36:39;;;;;;;4.00;3.70;;;;;;;;;;5052126;28;20214;-87
2022/10/10 03:39:08;;;;;;;4.83;4.20;;;;;;;;;;5050350;28;20230;-87
2022/10/10 03:41:36;;;;;;;6.43;4.30;;;;;;;;;;5050147;28;20226;-88
2022/10/10 03:44:03;;;;;;;5.43;4.10;;;;;;;;;;5050865;28;20237;-81
2022/10/10 03:46:30;;;;;;;5.03;3.80;;;;;;;;;;5050126;28;20286;-81
2022/10/10 03:48:57;;;;;;;6.17;3.80;;;;;;;;;;5049831;28;20226;-81
2022/10/10 03:51:24;;;;;;;4.77;3.70;;;;;;;;;;5050805;28;20218;-81
2022/10/10 03:53:51;;;;;;;6.30;3.77;;;;;;;;;;5050374;28;20765;-81
2022/10/10 03:56:19;;;;;;;3.70;3.27;;;;;;;;;;5038197;28;20207;-81
2022/10/10 03:58:47;;;;;;;4.37;3.97;;;;;;;;;;5047676;28;20241;-82
2022/10/10 04:01:14;;;;;;;4.47;4.10;;;;;;;;;;5050670;28;20225;-82
2022/10/10 04:03:41;;;;;;;4.27;3.87;;;;;;;;;;5041333;28;20236;-82
2022/10/10 04:06:08;;;;;;;4.27;3.90;;;;;;;;;;5030851;28;20211;-82
2022/10/10 04:08:35;;;;;;;7.43;4.20;;;;;;;;;;5030214;28;20227;-82
2022/10/10 04:11:02;;;;;;;4.43;3.70;;;;;;;;;;5031076;28;20226;-82
2022/10/10 04:13:29;;;;;;;4.30;3.90;;;;;;;;;;5030611;28;20234;-83
2022/10/10 04:15:58;;;;;;;8.90;4.20;;;;;;;;;;5031287;28;20211;-83
2022/10/10 04:18:25;;;;;;;4.60;4.13;;;;;;;;;;5032205;28;20235;-83
2022/10/10 04:20:52;;;;;;;9.37;3.73;;;;;;;;;;5033223;28;20727;-83
2022/10/10 04:23:19;;;;;;;4.70;3.80;;;;;;;;;;5037845;28;20234;-83
2022/10/10 04:25:48;;;;;;;6.23;4.43;;;;;;;;;;5031610;28;20214;-83
2022/10/10 04:28:15;;;;;;;5.10;3.90;;;;;;;;;;5030553;28;20285;-83
2022/10/10 04:30:43;;;;;;;5.93;4.07;;;;;;;;;;4990136;28;1239429;-83
2022/10/10 04:33:11;;;;;;;5.87;3.57;;;;;;;;;;5040629;28;20603;-83
2022/10/10 04:35:39;;;;;;;4.73;4.10;;;;;;;;;;5049026;28;20229;-83
2022/10/10 04:38:07;;;;;;;5.17;4.40;;;;;;;;;;5050722;28;20605;-84
2022/10/10 04:40:34;;;;;;;4.30;3.90;;;;;;;;;;5051315;28;20230;-83
2022/10/10 04:43:01;;;;;;;5.80;4.40;;;;;;;;;;5047688;28;20238;-83
2022/10/10 04:45:28;;;;;;;6.50;5.40;;;;;;;;;;5051114;28;20320;-83
2022/10/10 04:47:55;;;;;;;11.03;7.00;;;;;;;;;;5050724;28;20234;-83
2022/10/10 04:50:24;;;;;;;15.37;7.50;;;;;;;;;;5051143;28;20629;-83
2022/10/10 04:52:51;;;;;;;8.10;5.77;;;;;;;;;;5051880;28;20245;-82
2022/10/10 04:55:18;;;;;;;9.30;6.10;;;;;;;;;;5054904;28;20198;-82
2022/10/10 04:57:45;;;;;;;6.63;5.53;;;;;;;;;;5052317;28;20241;-82
2022/10/10 05:00:12;;;;;;;9.07;5.87;;;;;;;;;;5037034;28;20230;-82
2022/10/10 05:02:39;;;;;;;8.60;5.73;;;;;;;;;;5048587;28;20229;-83
2022/10/10 05:05:07;;;;;;;10.90;7.03;;;;;;;;;;5054986;28;20206;-82
2022/10/10 05:07:36;;;;;;;11.67;7.40;;;;;;;;;;5054455;28;20328;-82
2022/10/10 05:10:04;;;;;;;13.37;8.27;;;;;;;;;;5054680;28;20206;-79
2022/10/10 05:12:31;;;;;;;13.83;7.50;;;;;;;;;;5053998;28;20555;-84
2022/10/10 05:14:59;;;;;;;11.27;7.13;;;;;;;;;;5054438;28;20213;-80
2022/10/10 05:17:26;;;;;;;9.57;6.63;;;;;;;;;;5048265;28;20225;-78
2022/10/10 05:19:53;;;;;;;12.33;7.27;;;;;;;;;;5053846;28;20202;-78
2022/10/10 05:22:20;;;;;;;10.77;5.23;;;;;;;;;;5042934;28;20210;-77
2022/10/10 05:24:48;;;;;;;8.00;6.07;;;;;;;;;;5052877;28;20213;-78
2022/10/10 05:27:15;;;;;;;6.63;5.30;;;;;;;;;;5045848;28;20199;-79
2022/10/10 05:29:42;;;;;;;6.20;4.97;;;;;;;;;;5042207;28;20218;-78
2022/10/10 05:32:09;;;;;;;6.73;5.67;;;;;;;;;;5055882;28;20225;-80
2022/10/10 05:34:36;;;;;;;8.77;5.17;;;;;;;;;;5048915;28;20217;-78
2022/10/10 05:37:03;;;;;;;7.57;5.40;;;;;;;;;;5051117;28;20217;-78
2022/10/10 05:39:31;;;;;;;9.77;5.53;;;;;;;;;;5048793;28;20237;-78
2022/10/10 05:41:59;;;;;;;11.37;5.70;;;;;;;;;;5051834;28;20226;-77
2022/10/10 05:44:26;;;;;;;10.93;5.70;;;;;;;;;;5038412;28;20227;-78
2022/10/10 05:46:53;;;;;;;7.97;6.13;;;;;;;;;;5052010;28;20210;-78
2022/10/10 05:49:20;;;;;;;9.27;6.27;;;;;;;;;;5047164;28;20230;-78
2022/10/10 05:51:47;;;;;;;9.00;6.70;;;;;;;;;;5042965;28;20229;-78
2022/10/10 05:54:15;;;;;;;9.47;5.80;;;;;;;;;;5049483;28;20226;-78
2022/10/10 05:56:42;;;;;;;10.10;6.60;;;;;;;;;;5037353;28;20670;-78
2022/10/10 05:59:10;;;;;;;8.87;6.87;;;;;;;;;;5042898;28;20232;-78
2022/10/10 06:01:38;;;;;;;9.37;6.50;;;;;;;;;;5053298;28;20237;-79
2022/10/10 06:04:05;;;;;;;10.70;6.07;;;;;;;;;;5051497;28;20325;-78
2022/10/10 06:06:32;;;;;;;8.57;6.20;;;;;;;;;;5053120;28;20202;-78
2022/10/10 06:08:59;;;;;;;10.37;7.30;;;;;;;;;;5043512;28;20328;-78
2022/10/10 06:11:26;;;;;;;8.77;6.40;;;;;;;;;;5033313;28;20223;-79
2022/10/10 06:13:54;;;;;;;11.23;6.87;;;;;;;;;;5033502;28;20238;-79
2022/10/10 06:16:22;;;;;;;7.50;6.27;;;;;;;;;;5033821;28;20202;-79
2022/10/10 06:18:50;;;;;;;7.27;6.40;;;;;;;;;;5032981;28;20249;-79
2022/10/10 06:21:17;;;;;;;9.17;6.60;;;;;;;;;;5033637;28;20679;-78
2022/10/10 06:23:44;;;;;;;10.37;7.23;;;;;;;;;;5042707;28;20233;-78
2022/10/10 06:26:11;;;;;;;8.97;6.63;;;;;;;;;;5053079;28;20206;-79
2022/10/10 06:28:38;;;;;;;7.53;6.10;;;;;;;;;;5035794;28;20242;-78
2022/10/10 06:31:07;;;;;;;10.13;6.97;;;;;;;;;;5053153;28;20234;-80
2022/10/10 06:33:36;;;;;;;7.80;6.00;;;;;;;;;;5052935;28;20942;-80
2022/10/10 06:36:05;;;;;;;6.83;6.13;;;;;;;;;;5053248;28;20255;-80
2022/10/10 06:38:32;;;;;;;7.70;6.10;;;;;;;;;;5052365;28;20268;-80
2022/10/10 06:41:02;;;;;;;6.37;5.73;;;;;;;;;;5053231;28;20234;-81
2022/10/10 06:43:29;;;;;;;7.03;6.00;;;;;;;;;;5042764;28;20335;-80
2022/10/10 06:45:56;;;;;;;9.13;6.87;;;;;;;;;;5050869;28;20229;-80
2022/10/10 06:48:23;;;;;;;8.27;7.47;;;;;;;;;;5051761;28;20234;-80
2022/10/10 06:50:59;;;;;;;8.53;7.57;;;;;;;;;;5052770;28;20226;-80
2022/10/10 06:53:26;;;;;;;10.13;7.60;;;;;;;;;;5052163;28;20233;-80
2022/10/10 06:55:54;;;;;;;10.10;7.43;;;;;;;;;;5051921;28;20206;-80
2022/10/10 06:58:22;;;;;;;10.93;7.60;;;;;;;;;;5051541;28;20714;-80
2022/10/10 07:00:49;;;;;;;14.00;7.77;;;;;;;;;;5069968;28;20725;-80
2022/10/10 07:03:16;;;;;;;12.63;8.00;;;;;;;;;;5071919;28;20343;-80
2022/10/10 07:05:43;;;;;;;14.80;8.00;;;;;;;;;;5072734;28;20212;-80
2022/10/10 07:08:12;;;;;;;8.13;7.27;;;;;;;;;;5071753;28;20229;-80
2022/10/10 07:10:39;;;;;;;11.23;8.00;;;;;;;;;;5072476;28;20225;-80
2022/10/10 07:13:06;;;;;;;10.57;8.53;;;;;;;;;;5071759;28;20327;-80
2022/10/10 07:15:33;;;;;;;13.00;8.80;;;;;;;;;;5072331;28;20209;-80
2022/10/10 07:18:00;;;;;;;13.53;8.37;;;;;;;;;;5071495;28;20237;-80
2022/10/10 07:20:27;;;;;;;12.03;8.57;;;;;;;;;;5071863;28;20709;-80
2022/10/10 07:22:55;;;;;;;10.53;8.23;;;;;;;;;;5072153;28;20256;-80
2022/10/10 07:25:23;;;;;;;13.90;9.13;;;;;;;;;;5072589;28;20205;-78
2022/10/10 07:27:50;;;;;;;25.87;19.00;;;;;;;;;;5076834;28;20229;-79
2022/10/10 07:30:18;;;;;;;24.00;18.13;;;;;;;;;;5072710;28;20575;-80
2022/10/10 07:32:45;;;;;;;24.33;17.87;;;;;;;;;;5072494;28;20606;-80
2022/10/10 07:35:12;;;;;;;19.23;13.27;;;;;;;;;;5071888;28;20212;-80
2022/10/10 07:37:39;;;;;;;16.73;11.73;;;;;;;;;;5071242;28;20601;-80
2022/10/10 07:40:08;;;;;;;20.77;12.37;;;;;;;;;;5071693;28;20218;-80
2022/10/10 07:42:36;;;;;;;15.07;11.10;;;;;;;;;;5071398;28;20237;-81
2022/10/10 07:45:03;;;;;;;15.20;10.00;;;;;;;;;;5071884;28;20209;-80
2022/10/10 07:47:31;;;;;;;16.77;10.43;;;;;;;;;;5071058;28;20268;-80
2022/10/10 07:49:58;;;;;;;13.07;10.00;;;;;;;;;;5071964;28;20212;-80
2022/10/10 07:52:25;;;;;;;13.27;8.90;;;;;;;;;;5071246;28;20202;-81
2022/10/10 07:54:52;;;;;;;12.30;9.37;;;;;;;;;;5071784;28;20205;-80
2022/10/10 07:57:19;;;;;;;13.97;9.43;;;;;;;;;;5071165;28;20216;-80
2022/10/10 07:59:47;;;;;;;13.00;9.37;;;;;;;;;;5062567;28;20226;-80
2022/10/10 08:02:15;;;;;;;11.63;9.30;;;;;;;;;;5051102;28;20205;-81
2022/10/10 08:04:42;;;;;;;13.60;9.53;;;;;;;;;;5051519;28;20658;-80
2022/10/10 08:07:09;;;;;;;13.77;10.33;;;;;;;;;;5051621;28;20213;-80
2022/10/10 08:09:36;;;;;;;10.47;9.37;;;;;;;;;;5051143;28;20230;-81
2022/10/10 08:12:03;;;;;;;11.63;9.93;;;;;;;;;;5051427;28;20234;-80
2022/10/10 08:14:30;;;;;;;14.03;11.13;;;;;;;;;;5051118;28;20244;-80
2022/10/10 08:16:59;;;;;;;17.70;12.23;;;;;;;;;;5051673;28;20210;-80
2022/10/10 08:19:26;;;;;;;13.53;11.83;;;;;;;;;;5050417;28;20237;-80
2022/10/10 08:21:53;;;;;;;17.10;11.30;;;;;;;;;;5051329;28;20230;-80
2022/10/10 08:24:20;;;;;;;14.17;11.37;;;;;;;;;;5050981;28;20237;-80
2022/10/10 08:26:47;;;;;;;14.43;11.23;;;;;;;;;;5051626;28;20217;-80
2022/10/10 08:29:14;;;;;;;18.43;11.63;;;;;;;;;;5054099;28;20317;-80
2022/10/10 08:31:41;;;;;;;15.57;11.63;;;;;;;;;;5055338;28;20233;-80
2022/10/10 08:34:09;;;;;;;18.37;13.23;;;;;;;;;;5055136;28;20317;-80
2022/10/10 08:36:36;;;;;;;19.13;13.70;;;;;;;;;;5060300;28;20710;-80
2022/10/10 08:39:04;;;;;;;19.53;13.17;;;;;;;;;;5064739;28;20249;-80
2022/10/10 08:41:36;;;;;;;17.33;12.37;;;;;;;;;;5063590;28;20233;-81
2022/10/10 08:44:05;;;;;;;23.20;13.80;;;;;;;;;;5054328;28;20238;-81
2022/10/10 08:46:36;;;;;;;19.67;14.93;;;;;;;;;;5054681;28;20232;-81
2022/10/10 08:49:11;;;;;;;19.93;14.93;;;;;;;;;;5054238;28;20230;-81
2022/10/10 08:51:40;;;;;;;20.00;14.13;;;;;;;;;;5054937;28;20225;-80
2022/10/10 08:54:11;;;;;;;20.70;14.70;;;;;;;;;;5054129;28;20658;-80
2022/10/10 08:56:38;;;;;;;21.23;14.07;;;;;;;;;;5054589;28;20217;-80
2022/10/10 08:59:08;;;;;;;24.50;14.87;;;;;;;;;;5057113;28;20708;-81
2022/10/10 09:01:37;;;;;;;19.60;14.10;;;;;;;;;;5074484;28;20232;-81
2022/10/10 09:04:05;;;;;;;16.33;12.70;;;;;;;;;;5074008;28;20237;-80
2022/10/10 09:06:41;;;;;;;14.83;11.63;;;;;;;;;;5074614;28;20205;-81
2022/10/10 09:09:14;;;;;;;15.47;10.90;;;;;;;;;;5073977;28;20716;-81
2022/10/10 09:11:46;;;;;;;14.23;9.50;;;;;;;;;;5074437;28;20264;-81
2022/10/10 09:14:19;;;;;;;13.67;8.90;;;;;;;;;;5073940;28;20238;-80
2022/10/10 09:16:50;;;;;;;10.73;7.60;;;;;;;;;;5074358;28;20653;-81
2022/10/10 09:19:26;;;;;;;11.53;8.67;;;;;;;;;;5073729;28;20237;-81
2022/10/10 09:21:55;;;;;;;12.27;8.03;;;;;;;;;;5074519;28;20229;-80
2022/10/10 09:24:25;;;;;;;8.47;6.90;;;;;;;;;;5073796;28;20236;-80
2022/10/10 09:26:55;;;;;;;8.53;7.53;;;;;;;;;;5074254;28;20205;-80
2022/10/10 09:29:25;;;;;;;18.33;7.07;;;;;;;;;;5073367;28;20225;-81
2022/10/10 09:31:55;;;;;;;15.80;6.70;;;;;;;;;;5073861;28;20233;-81
2022/10/10 09:34:27;;;;;;;8.33;6.17;;;;;;;;;;5074106;28;20229;-82
2022/10/10 09:36:59;;;;;;;6.87;5.80;;;;;;;;;;5074085;28;20645;-82
2022/10/10 09:39:32;;;;;;;7.93;5.97;;;;;;;;;;5072091;28;20237;-82
2022/10/10 09:42:00;;;;;;;8.23;6.20;;;;;;;;;;5074180;28;20593;-82
2022/10/10 09:44:27;;;;;;;6.47;5.47;;;;;;;;;;5073733;28;20240;-88
2022/10/10 09:46:55;;;;;;;7.53;5.53;;;;;;;;;;5073776;28;20205;-89
2022/10/10 09:49:22;;;;;;;5.67;5.03;;;;;;;;;;5073149;28;20664;-89
2022/10/10 09:51:50;;;;;;;9.73;5.40;;;;;;;;;;5074666;28;20221;-89
2022/10/10 09:54:18;;;;;;;12.20;5.80;;;;;;;;;;5073445;28;20608;-89
2022/10/10 09:56:49;;;;;;;7.53;5.63;;;;;;;;;;5073915;28;20216;-88
2022/10/10 09:59:34;;;;;;;6.57;5.30;;;;;;;;;;5068457;28;20233;-88
2022/10/10 10:02:02;;;;;;;6.73;5.07;;;;;;;;;;5053552;28;20218;-88
2022/10/10 10:04:32;;;;;;;6.23;4.77;;;;;;;;;;5052973;28;20245;-88
2022/10/10 10:07:07;;;;;;;7.50;5.50;;;;;;;;;;5053737;28;20525;-88
2022/10/10 10:09:35;;;;;;;7.17;5.10;;;;;;;;;;5053104;28;20305;-88
2022/10/10 10:12:05;;;;;;;8.40;5.50;;;;;;;;;;5053593;28;20222;-88
2022/10/10 10:14:35;;;;;;;6.57;4.80;;;;;;;;;;5052933;28;20714;-88
2022/10/10 10:17:06;;;;;;;5.30;4.80;;;;;;;;;;5053376;28;20569;-89
2022/10/10 10:19:34;;;;;;;8.20;4.90;;;;;;;;;;5052405;28;20256;-88
2022/10/10 10:22:01;;;;;;;4.80;4.27;;;;;;;;;;5053479;28;20231;-88
2022/10/10 10:24:31;;;;;;;8.63;5.00;;;;;;;;;;5053511;28;20238;-88
2022/10/10 10:27:08;;;;;;;8.23;5.80;;;;;;;;;;5054328;28;20213;-88
2022/10/10 10:29:37;;;;;;;6.20;5.33;;;;;;;;;;5054242;28;20528;-88
2022/10/10 10:32:10;;;;;;;8.57;5.77;;;;;;;;;;5055321;28;20236;-88
2022/10/10 10:34:42;;;;;;;5.33;4.80;;;;;;;;;;5057854;28;20276;-88
2022/10/10 10:37:16;;;;;;;7.63;5.10;;;;;;;;;;5052965;28;20194;-87
2022/10/10 10:39:47;;;;;;;5.00;4.50;;;;;;;;;;5053042;28;20210;-87
2022/10/10 10:42:19;;;;;;;6.88;4.53;;;;;;;;;;5052786;28;20233;-88
2022/10/10 10:44:50;;;;;;;7.22;4.50;;;;;;;;;;5053218;28;20194;-88
2022/10/10 10:47:29;;;;;;;9.48;5.00;;;;;;;;;;5052587;28;20206;-88
2022/10/10 10:50:03;;;;;;;7.45;5.20;;;;;;;;;;5052719;28;20653;-88
2022/10/10 10:52:46;;;;;;;7.50;4.88;;;;;;;;;;5053302;28;20233;-88
2022/10/10 10:55:17;;;;;;;8.25;4.50;;;;;;;;;;5053088;28;20229;-88
2022/10/10 10:57:52;;;;;;;5.00;4.00;;;;;;;;;;5052399;28;20237;-88
2022/10/10 11:00:22;;;;;;;5.85;4.13;;;;;;;;;;5065892;28;20224;-89
2022/10/10 11:02:57;;;;;;;6.45;4.43;;;;;;;;;;5072668;28;20237;-88
2022/10/10 11:05:32;;;;;;;7.10;3.85;;;;;;;;;;5073181;28;20263;-88
2022/10/10 11:08:04;;;;;;;7.72;4.90;;;;;;;;;;5078331;28;20232;-88
2022/10/10 11:10:37;;;;;;;5.43;3.85;;;;;;;;;;5074035;28;20221;-88
2022/10/10 11:13:10;;;;;;;4.30;3.90;;;;;;;;;;5073390;28;20255;-88
2022/10/10 11:15:40;;;;;;;6.10;3.75;;;;;;;;;;5073709;28;20280;-88
2022/10/10 11:18:10;;;;;;;4.90;3.67;;;;;;;;;;5072162;28;20241;-88
2022/10/10 11:20:41;;;;;;;5.60;3.65;;;;;;;;;;5072849;28;20229;-88
2022/10/10 11:23:11;;;;;;;4.82;3.95;;;;;;;;;;5085617;28;20237;-88
2022/10/10 11:25:42;;;;;;;5.60;3.58;;;;;;;;;;5083761;28;20206;-89
2022/10/10 11:28:11;;;;;;;3.97;3.35;;;;;;;;;;5072209;28;20622;-89
2022/10/10 11:30:43;;;;;;;4.82;3.53;;;;;;;;;;5072739;28;20237;-88
2022/10/10 11:33:12;;;;;;;3.75;3.17;;;;;;;;;;5072415;28;20240;-89
2022/10/10 11:35:41;;;;;;;4.88;3.30;;;;;;;;;;5072459;28;20208;-89
2022/10/10 11:38:13;;;;;;;3.03;2.72;;;;;;;;;;5071542;28;20236;-89
2022/10/10 11:40:47;;;;;;;4.57;3.30;;;;;;;;;;5072958;28;20229;-89
2022/10/10 11:43:19;;;;;;;3.65;2.50;;;;;;;;;;5072178;28;20724;-89
2022/10/10 11:45:48;;;;;;;5.35;2.78;;;;;;;;;;5072840;28;20194;-89
2022/10/10 11:48:25;;;;;;;3.67;2.80;;;;;;;;;;5072273;28;20233;-89
2022/10/10 11:50:54;;;;;;;4.93;2.80;;;;;;;;;;5072401;28;20232;-89
2022/10/10 11:53:23;;;;;;;3.58;3.28;;;;;;;;;;5072467;28;20234;-90
2022/10/10 11:55:53;;;;;;;4.75;2.67;;;;;;;;;;5072930;28;20209;-90
2022/10/10 11:58:29;;;;;;;4.00;2.38;;;;;;;;;;5071986;28;20233;-89
2022/10/10 12:00:59;;;;;;;6.00;3.10;;;;;;;;;;5054250;28;20237;-89
2022/10/10 12:03:27;;;;;;;4.10;2.40;;;;;;;;;;5054292;28;20316;-92
2022/10/10 12:05:57;;;;;;;4.72;2.53;;;;;;;;;;5057199;28;20205;-89
2022/10/10 12:08:26;;;;;;;3.28;2.33;;;;;;;;;;5056346;28;20249;-89
2022/10/10 12:10:56;;;;;;;6.10;2.30;;;;;;;;;;5056183;28;20222;-89
2022/10/10 12:13:29;;;;;;;3.47;2.30;;;;;;;;;;5056407;28;20230;-89
2022/10/10 12:15:58;;;;;;;7.50;2.95;;;;;;;;;;5055887;28;20209;-89
2022/10/10 12:18:30;;;;;;;8.40;2.90;;;;;;;;;;5055193;28;20245;-89
2022/10/10 12:21:04;;;;;;;3.55;2.50;;;;;;;;;;5056519;28;20230;-89
2022/10/10 12:23:31;;;;;;;5.97;2.65;;;;;;;;;;5056187;28;20237;-89
2022/10/10 12:25:58;;;;;;;6.85;2.67;;;;;;;;;;5056215;28;20202;-89
2022/10/10 12:28:30;;;;;;;10.52;2.40;;;;;;;;;;5064523;28;20654;-90
2022/10/10 12:31:12;;;;;;;5.18;2.45;;;;;;;;;;5056069;28;20268;-89
2022/10/10 12:33:57;;;;;;;5.70;2.53;;;;;;;;;;5054725;28;20237;-89
2022/10/10 12:36:54;;;;;;;4.05;2.30;;;;;;;;;;5055052;28;20205;-89
2022/10/10 12:39:35;;;;;;;5.28;2.67;;;;;;;;;;5054664;28;20264;-89
2022/10/10 12:42:03;;;;;;;5.40;2.90;;;;;;;;;;5055581;28;20755;-89
2022/10/10 12:44:43;;;;;;;5.05;2.63;;;;;;;;;;5054628;28;20233;-89
2022/10/10 12:47:30;;;;;;;6.13;2.50;;;;;;;;;;5055140;28;20296;-88
2022/10/10 12:49:58;;;;;;;3.92;2.40;;;;;;;;;;5055027;28;20206;-90
2022/10/10 12:52:31;;;;;;;4.75;2.50;;;;;;;;;;5054544;28;20698;-90
2022/10/10 12:55:02;;;;;;;5.57;2.38;;;;;;;;;;5055243;28;20190;-89
2022/10/10 12:57:32;;;;;;;5.10;2.45;;;;;;;;;;5054652;28;20682;-90
2022/10/10 13:00:05;;;;;;;5.03;2.38;;;;;;;;;;5054763;28;20222;-91
2022/10/10 13:02:32;;;;;;;4.20;2.30;;;;;;;;;;5054521;28;20621;-90
2022/10/10 13:05:01;;;;;;;5.82;2.92;;;;;;;;;;5055326;28;20213;-90
2022/10/10 13:07:30;;;;;;;6.93;2.55;;;;;;;;;;5054379;28;20194;-90
2022/10/10 13:10:04;;;;;;;8.85;2.60;;;;;;;;;;5054605;28;20206;-89
2022/10/10 13:12:33;;;;;;;5.45;2.47;;;;;;;;;;5054411;28;20229;-89
2022/10/10 13:15:00;;;;;;;6.30;2.63;;;;;;;;;;5054622;28;20210;-89
2022/10/10 13:17:28;;;;;;;5.53;2.60;;;;;;;;;;5054352;28;20221;-89
2022/10/10 13:19:56;;;;;;;7.45;2.33;;;;;;;;;;5054738;28;20233;-89
2022/10/10 13:22:24;;;;;;;4.60;2.55;;;;;;;;;;5054303;28;20210;-90
2022/10/10 13:24:53;;;;;;;6.95;2.83;;;;;;;;;;5054876;28;20236;-89
2022/10/10 13:27:21;;;;;;;4.72;2.35;;;;;;;;;;5054053;28;20206;-89
2022/10/10 13:29:48;;;;;;;7.32;2.33;;;;;;;;;;5054175;28;20694;-88
2022/10/10 13:32:16;;;;;;;4.63;2.30;;;;;;;;;;5054062;28;20225;-89
2022/10/10 13:34:46;;;;;;;4.38;2.53;;;;;;;;;;5054310;28;20209;-90
2022/10/10 13:37:14;;;;;;;5.45;2.38;;;;;;;;;;5053967;28;20229;-89
2022/10/10 13:39:41;;;;;;;5.60;2.45;;;;;;;;;;5054010;28;20229;-89
2022/10/10 13:42:16;;;;;;;4.38;2.55;;;;;;;;;;5054055;28;20226;-89
2022/10/10 13:44:48;;;;;;;5.35;2.70;;;;;;;;;;5053813;28;20235;-89
2022/10/10 13:47:37;;;;;;;5.25;2.50;;;;;;;;;;5053856;28;20640;-89
2022/10/10 13:50:18;;;;;;;5.20;2.70;;;;;;;;;;5053890;28;20217;-89
2022/10/10 13:52:45;;;;;;;5.20;2.50;;;;;;;;;;5053395;28;20268;-89
2022/10/10 13:55:16;;;;;;;3.63;2.33;;;;;;;;;;5054121;28;20206;-89
2022/10/10 13:57:46;;;;;;;6.85;2.33;;;;;;;;;;5053133;28;20241;-89
2022/10/10 14:00:16;;;;;;;5.43;2.88;;;;;;;;;;5066511;28;20229;-89
2022/10/10 14:02:44;;;;;;;4.68;2.28;;;;;;;;;;5073698;28;20237;-89
2022/10/10 14:05:16;;;;;;;3.40;2.67;;;;;;;;;;5073907;28;20262;-88
2022/10/10 14:07:47;;;;;;;6.28;2.20;;;;;;;;;;5073342;28;20233;-89
2022/10/10 14:10:17;;;;;;;8.98;3.10;;;;;;;;;;5073701;28;20225;-89
2022/10/10 14:12:50;;;;;;;8.32;2.65;;;;;;;;;;5073471;28;20239;-89
2022/10/10 14:15:31;;;;;;;4.97;2.78;;;;;;;;;;5073878;28;20198;-90
2022/10/10 14:17:58;;;;;;;5.55;2.58;;;;;;;;;;5073320;28;20311;-89
2022/10/10 14:20:25;;;;;;;3.88;2.50;;;;;;;;;;5069571;28;20232;-89
2022/10/10 14:22:52;;;;;;;5.22;2.60;;;;;;;;;;5053312;28;20603;-89
2022/10/10 14:25:19;;;;;;;7.13;2.67;;;;;;;;;;5057564;28;20202;-88
2022/10/10 14:27:46;;;;;;;5.88;2.63;;;;;;;;;;5055705;28;20234;-90
2022/10/10 14:30:15;;;;;;;5.32;2.50;;;;;;;;;;5054911;28;20705;-88
2022/10/10 14:32:42;;;;;;;4.25;2.42;;;;;;;;;;5053988;28;20241;-89
2022/10/10 14:35:10;;;;;;;8.75;3.22;;;;;;;;;;5054395;28;20217;-89
2022/10/10 14:37:37;;;;;;;5.78;2.65;;;;;;;;;;5053445;28;20244;-89
2022/10/10 14:40:10;;;;;;;9.32;3.08;;;;;;;;;;5053926;28;20232;-89
2022/10/10 14:42:38;;;;;;;8.52;3.03;;;;;;;;;;5052903;28;20598;-90
2022/10/10 14:45:06;;;;;;;5.68;2.58;;;;;;;;;;5053278;28;20182;-89
2022/10/10 14:47:34;;;;;;;9.20;2.67;;;;;;;;;;5053675;28;20233;-89
2022/10/10 14:50:01;;;;;;;8.38;3.22;;;;;;;;;;5052809;28;20198;-89